createdAt,value
2023-03-10T00:01:16.472Z,99.90
2023-03-10T00:03:43.681Z,99.90
2023-03-10T00:06:11.607Z,99.90
2023-03-10T00:08:38.320Z,99.90
2023-03-10T00:11:05.066Z,99.90
2023-03-10T00:13:31.709Z,99.90
2023-03-10T00:15:58.423Z,99.90
2023-03-10T00:18:25.122Z,99.90
2023-03-10T00:20:52.602Z,99.90
2023-03-10T00:23:19.717Z,99.90
2023-03-10T00:25:53.287Z,99.90
2023-03-10T00:28:19.903Z,99.90
2023-03-10T00:30:56.446Z,99.90
2023-03-10T00:33:23.112Z,99.90
2023-03-10T00:35:49.782Z,99.90
2023-03-10T00:38:16.371Z,99.90
2023-03-10T00:40:42.977Z,99.90
2023-03-10T00:43:09.576Z,99.90
2023-03-10T00:45:36.205Z,99.90
2023-03-10T00:48:02.818Z,99.90
2023-03-10T00:50:29.408Z,99.90
2023-03-10T00:52:56.026Z,99.90
2023-03-10T00:55:22.638Z,99.90
2023-03-10T00:57:49.291Z,99.90
2023-03-10T01:00:17.905Z,99.90
2023-03-10T01:02:44.575Z,99.90
2023-03-10T01:05:11.448Z,99.90
2023-03-10T01:07:38.031Z,99.90
2023-03-10T01:10:04.839Z,99.90
2023-03-10T01:12:31.464Z,99.90
2023-03-10T01:14:58.138Z,99.90
2023-03-10T01:17:24.792Z,99.90
2023-03-10T01:19:51.394Z,99.90
2023-03-10T01:22:17.978Z,99.90
2023-03-10T01:24:44.618Z,99.90
2023-03-10T01:27:11.216Z,99.90
2023-03-10T01:29:37.829Z,99.90
2023-03-10T01:32:04.559Z,99.90
2023-03-10T01:34:31.245Z,99.90
2023-03-10T01:36:57.849Z,99.90
2023-03-10T01:39:24.553Z,99.90
2023-03-10T01:41:51.203Z,99.90
2023-03-10T01:44:19.961Z,99.90
2023-03-10T01:46:53.214Z,99.90
2023-03-10T01:49:30.396Z,99.90
2023-03-10T01:52:00.088Z,99.90
2023-03-10T01:54:30.541Z,99.90
2023-03-10T01:56:57.610Z,99.90
2023-03-10T01:59:25.717Z,99.90
2023-03-10T02:01:52.969Z,99.90
2023-03-10T02:04:27.675Z,99.90
2023-03-10T02:06:55.023Z,99.90
2023-03-10T02:09:21.984Z,99.90
2023-03-10T02:11:49.469Z,99.90
2023-03-10T02:14:16.402Z,99.90
2023-03-10T02:16:43.062Z,99.90
2023-03-10T02:19:16.159Z,99.90
2023-03-10T02:21:45.557Z,99.90
2023-03-10T02:24:18.143Z,99.90
2023-03-10T02:26:44.728Z,99.90
2023-03-10T02:29:16.946Z,99.90
2023-03-10T02:31:44.647Z,99.90
2023-03-10T02:34:12.250Z,99.90
2023-03-10T02:36:38.911Z,99.90
2023-03-10T02:39:07.492Z,99.90
2023-03-10T02:41:36.068Z,99.90
2023-03-10T02:44:04.563Z,99.90
2023-03-10T02:46:31.154Z,99.90
2023-03-10T02:49:01.939Z,99.90
2023-03-10T02:51:30.734Z,99.90
2023-03-10T02:53:57.407Z,99.90
2023-03-10T02:56:24.176Z,99.90
2023-03-10T02:58:50.814Z,99.90
2023-03-10T03:01:17.639Z,99.90
2023-03-10T03:03:44.444Z,99.90
2023-03-10T03:06:11.163Z,99.90
2023-03-10T03:08:37.762Z,99.90
2023-03-10T03:11:04.570Z,99.90
2023-03-10T03:13:31.174Z,99.90
2023-03-10T03:15:57.805Z,99.90
2023-03-10T03:18:24.391Z,99.90
2023-03-10T03:20:51.049Z,99.90
2023-03-10T03:23:17.768Z,99.90
2023-03-10T03:25:44.533Z,99.90
2023-03-10T03:28:11.912Z,99.90
2023-03-10T03:30:39.467Z,99.90
2023-03-10T03:33:06.777Z,99.90
2023-03-10T03:35:37.283Z,99.90
2023-03-10T03:38:04.609Z,99.90
2023-03-10T03:40:33.517Z,99.90
2023-03-10T03:43:00.346Z,99.90
2023-03-10T03:45:27.879Z,99.90
2023-03-10T03:47:54.758Z,99.90
2023-03-10T03:50:21.961Z,99.90
2023-03-10T03:52:48.590Z,99.90
2023-03-10T03:55:16.087Z,99.90
2023-03-10T03:57:42.941Z,99.90
2023-03-10T04:00:12.897Z,99.90
2023-03-10T04:02:39.599Z,99.90
2023-03-10T04:05:06.748Z,99.90
2023-03-10T04:07:33.567Z,99.90
2023-03-10T04:10:00.229Z,99.90
2023-03-10T04:12:27.383Z,99.90
2023-03-10T04:14:53.996Z,99.90
2023-03-10T04:17:20.603Z,99.90
2023-03-10T04:19:54.203Z,99.90
2023-03-10T04:22:27.483Z,99.90
2023-03-10T04:24:54.176Z,99.90
2023-03-10T04:27:20.850Z,99.90
2023-03-10T04:29:47.453Z,99.90
2023-03-10T04:32:14.060Z,99.90
2023-03-10T04:34:40.769Z,99.90
2023-03-10T04:37:07.899Z,99.90
2023-03-10T04:39:35.670Z,99.90
2023-03-10T04:42:02.298Z,99.90
2023-03-10T04:44:31.368Z,99.90
2023-03-10T04:46:58.532Z,99.90
2023-03-10T04:49:25.205Z,99.90
2023-03-10T04:51:52.713Z,99.90
2023-03-10T04:54:19.330Z,99.90
2023-03-10T04:56:45.978Z,99.90
2023-03-10T04:59:12.643Z,99.90
2023-03-10T05:01:39.308Z,99.90
2023-03-10T05:04:06.266Z,99.90
2023-03-10T05:06:32.962Z,99.90
2023-03-10T05:09:00.966Z,99.90
2023-03-10T05:11:27.651Z,99.90
2023-03-10T05:13:54.262Z,99.90
2023-03-10T05:16:22.231Z,99.90
2023-03-10T05:18:48.986Z,99.90
2023-03-10T05:21:15.730Z,99.90
2023-03-10T05:23:42.394Z,99.90
2023-03-10T05:26:10.158Z,99.90
2023-03-10T05:28:36.846Z,99.90
2023-03-10T05:31:08.308Z,99.90
2023-03-10T05:33:34.956Z,99.90
2023-03-10T05:36:04.121Z,99.90
2023-03-10T05:38:30.778Z,99.90
2023-03-10T05:40:57.508Z,99.90
2023-03-10T05:43:24.150Z,99.90
2023-03-10T05:45:57.538Z,99.90
2023-03-10T05:48:24.497Z,99.90
2023-03-10T05:50:58.972Z,99.90
2023-03-10T05:53:25.729Z,99.90
2023-03-10T05:55:53.062Z,99.90
2023-03-10T05:58:19.703Z,99.90
2023-03-10T06:00:46.362Z,99.90
2023-03-10T06:03:13.018Z,99.90
2023-03-10T06:05:39.656Z,99.90
2023-03-10T06:08:06.269Z,99.90
2023-03-10T06:10:32.980Z,99.90
2023-03-10T06:12:59.624Z,99.90
2023-03-10T06:15:26.331Z,99.90
2023-03-10T06:17:52.987Z,99.90
2023-03-10T06:20:19.693Z,99.90
2023-03-10T06:22:46.288Z,99.90
2023-03-10T06:25:13.250Z,99.90
2023-03-10T06:27:39.857Z,99.90
2023-03-10T06:30:06.832Z,99.90
2023-03-10T06:32:33.957Z,99.90
2023-03-10T06:35:00.696Z,99.90
2023-03-10T06:37:28.071Z,99.90
2023-03-10T06:39:54.705Z,99.90
2023-03-10T06:42:21.359Z,99.90
2023-03-10T06:44:49.287Z,99.90
2023-03-10T06:47:16.001Z,99.90
2023-03-10T06:49:42.677Z,99.90
2023-03-10T06:52:09.310Z,99.90
2023-03-10T06:54:36.298Z,99.90
2023-03-10T06:57:04.229Z,99.90
2023-03-10T06:59:31.761Z,99.90
2023-03-10T07:01:58.451Z,99.90
2023-03-10T07:04:25.071Z,99.90
2023-03-10T07:06:51.790Z,99.90
2023-03-10T07:09:18.452Z,99.90
2023-03-10T07:11:45.081Z,99.90
2023-03-10T07:14:11.687Z,99.90
2023-03-10T07:16:41.457Z,99.90
2023-03-10T07:19:08.134Z,99.90
2023-03-10T07:21:34.757Z,99.90
2023-03-10T07:24:01.378Z,99.90
2023-03-10T07:26:28.061Z,99.90
2023-03-10T07:28:54.721Z,99.90
2023-03-10T07:31:21.403Z,99.90
2023-03-10T07:33:49.329Z,99.90
2023-03-10T07:36:17.990Z,99.90
2023-03-10T07:38:44.768Z,99.90
2023-03-10T07:41:13.590Z,99.90
2023-03-10T07:43:40.188Z,99.90
2023-03-10T07:46:08.077Z,99.90
2023-03-10T07:48:35.171Z,99.90
2023-03-10T07:51:02.009Z,99.90
2023-03-10T07:53:29.085Z,99.90
2023-03-10T07:55:56.071Z,99.90
2023-03-10T07:58:22.793Z,99.90
2023-03-10T08:00:58.985Z,99.90
2023-03-10T08:03:26.360Z,99.90
2023-03-10T08:05:53.148Z,99.90
2023-03-10T08:08:19.820Z,99.90
2023-03-10T08:10:46.597Z,99.90
2023-03-10T08:13:13.491Z,99.90
2023-03-10T08:15:40.751Z,99.90
2023-03-10T08:18:07.908Z,99.90
2023-03-10T08:20:36.738Z,99.90
2023-03-10T08:23:04.179Z,99.90
2023-03-10T08:25:31.024Z,99.90
2023-03-10T08:27:57.882Z,99.90
2023-03-10T08:30:24.594Z,99.90
2023-03-10T08:32:51.324Z,99.90
2023-03-10T08:35:18.142Z,99.90
2023-03-10T08:37:44.900Z,99.90
2023-03-10T08:40:12.820Z,99.90
2023-03-10T08:42:39.454Z,99.90
2023-03-10T08:45:08.691Z,99.90
2023-03-10T08:47:35.697Z,99.90
2023-03-10T08:50:02.441Z,98.70
2023-03-10T08:52:29.066Z,97.10
2023-03-10T08:54:58.806Z,96.80
2023-03-10T08:57:26.556Z,94.60
2023-03-10T08:59:53.382Z,93.20
2023-03-10T09:02:22.016Z,91.50
2023-03-10T09:04:49.281Z,89.20
2023-03-10T09:07:15.944Z,81.40
2023-03-10T09:09:42.739Z,73.40
2023-03-10T09:12:09.487Z,69.50
2023-03-10T09:14:36.838Z,62.10
2023-03-10T09:17:03.712Z,58.30
2023-03-10T09:19:30.330Z,56.70
2023-03-10T09:21:57.567Z,54.40
2023-03-10T09:24:24.422Z,51.50
2023-03-10T09:26:51.036Z,50.00
2023-03-10T09:29:17.673Z,49.40
2023-03-10T09:31:45.532Z,49.40
2023-03-10T09:34:12.354Z,50.10
2023-03-10T09:36:39.101Z,48.70
2023-03-10T09:39:05.805Z,47.00
2023-03-10T09:41:47.851Z,47.30
2023-03-10T09:44:22.952Z,49.00
2023-03-10T09:47:08.573Z,51.20
2023-03-10T09:49:39.521Z,52.10
2023-03-10T09:52:19.146Z,53.60
2023-03-10T09:54:46.895Z,55.50
2023-03-10T09:57:15.684Z,57.60
2023-03-10T09:59:43.332Z,59.30
2023-03-10T10:02:16.030Z,60.10
2023-03-10T10:04:43.230Z,59.80
2023-03-10T10:07:15.802Z,59.90
2023-03-10T10:09:54.125Z,61.10
2023-03-10T10:12:23.803Z,61.20
2023-03-10T10:14:58.541Z,62.40
2023-03-10T10:17:32.505Z,64.70
2023-03-10T10:20:00.453Z,68.10
2023-03-10T10:22:29.124Z,71.50
2023-03-10T10:25:02.500Z,74.60
2023-03-10T10:27:31.286Z,75.90
2023-03-10T10:29:58.556Z,77.10
2023-03-10T10:32:25.350Z,78.40
2023-03-10T10:34:52.016Z,78.30
2023-03-10T10:37:28.455Z,79.60
2023-03-10T10:39:55.939Z,81.20
2023-03-10T10:42:25.588Z,83.40
2023-03-10T10:44:56.956Z,88.60
2023-03-10T10:47:28.877Z,90.90
2023-03-10T10:49:56.618Z,92.30
2023-03-10T10:52:24.398Z,94.10
2023-03-10T10:54:57.437Z,95.20
2023-03-10T10:57:32.449Z,96.60
2023-03-10T11:00:18.536Z,97.20
2023-03-10T11:02:46.227Z,98.00
2023-03-10T11:05:17.925Z,98.10
2023-03-10T11:07:44.689Z,98.80
2023-03-10T11:10:25.281Z,99.90
2023-03-10T11:13:01.125Z,99.90
2023-03-10T11:15:35.631Z,99.90
2023-03-10T11:18:19.012Z,99.90
2023-03-10T11:21:00.329Z,99.90
2023-03-10T11:23:36.249Z,99.20
2023-03-10T11:26:22.150Z,99.70
2023-03-10T11:29:07.632Z,99.60
2023-03-10T11:31:34.414Z,99.90
2023-03-10T11:34:21.410Z,99.90
2023-03-10T11:36:56.438Z,98.50
2023-03-10T11:39:23.633Z,97.00
2023-03-10T11:41:54.541Z,95.10
2023-03-10T11:44:31.429Z,93.50
2023-03-10T11:47:06.411Z,93.00
2023-03-10T11:49:37.057Z,93.10
2023-03-10T11:52:11.560Z,92.20
2023-03-10T11:54:44.050Z,91.80
2023-03-10T11:57:18.921Z,92.40
2023-03-10T11:59:53.123Z,91.80
2023-03-10T12:02:26.750Z,91.60
2023-03-10T12:04:57.684Z,91.10
2023-03-10T12:07:29.941Z,90.00
2023-03-10T12:09:58.864Z,89.00
2023-03-10T12:12:32.734Z,88.30
2023-03-10T12:15:01.002Z,87.40
2023-03-10T12:17:28.441Z,84.10
2023-03-10T12:20:08.727Z,83.70
2023-03-10T12:22:39.319Z,82.00
2023-03-10T12:25:26.016Z,82.70
2023-03-10T12:28:11.534Z,81.40
2023-03-10T12:30:48.960Z,80.90
2023-03-10T12:33:30.978Z,79.70
2023-03-10T12:36:05.302Z,77.70
2023-03-10T12:38:35.005Z,77.90
2023-03-10T12:41:02.002Z,77.20
2023-03-10T12:43:51.896Z,76.70
2023-03-10T12:46:37.467Z,76.40
2023-03-10T12:49:23.124Z,77.30
2023-03-10T12:52:00.529Z,78.10
2023-03-10T12:54:44.564Z,79.40
2023-03-10T12:57:18.006Z,79.60
2023-03-10T13:00:04.840Z,78.70
2023-03-10T13:02:43.771Z,79.30
2023-03-10T13:05:21.952Z,80.20
2023-03-10T13:07:49.788Z,80.80
2023-03-10T13:10:19.502Z,80.70
2023-03-10T13:12:48.167Z,79.00
2023-03-10T13:15:26.598Z,79.80
2023-03-10T13:17:55.295Z,80.50
2023-03-10T13:20:22.347Z,80.60
2023-03-10T13:22:55.917Z,80.40
2023-03-10T13:25:22.651Z,81.20
2023-03-10T13:27:49.398Z,81.50
2023-03-10T13:30:17.829Z,82.80
2023-03-10T13:32:52.010Z,82.60
2023-03-10T13:35:29.961Z,82.30
2023-03-10T13:38:13.391Z,82.30
2023-03-10T13:40:41.918Z,82.10
2023-03-10T13:43:21.270Z,83.00
2023-03-10T13:45:53.863Z,82.70
2023-03-10T13:48:22.604Z,84.30
2023-03-10T13:51:03.057Z,85.20
2023-03-10T13:53:29.694Z,85.70
2023-03-10T13:55:57.313Z,85.50
2023-03-10T13:58:25.004Z,85.30
2023-03-10T14:00:56.213Z,86.10
2023-03-10T14:03:23.130Z,85.90
2023-03-10T14:05:49.853Z,85.90
2023-03-10T14:08:20.875Z,86.70
2023-03-10T14:10:47.852Z,85.90
2023-03-10T14:13:40.944Z,86.60
2023-03-10T14:16:07.970Z,86.70
2023-03-10T14:18:35.552Z,87.30
2023-03-10T14:21:52.418Z,87.90
2023-03-10T14:24:27.908Z,88.60
2023-03-10T14:26:59.126Z,89.50
2023-03-10T14:29:26.110Z,89.80
2023-03-10T14:31:52.817Z,90.40
2023-03-10T14:34:19.466Z,90.10
2023-03-10T14:36:46.145Z,90.10
2023-03-10T14:39:12.755Z,90.20
2023-03-10T14:41:39.381Z,90.20
2023-03-10T14:44:06.056Z,90.30
2023-03-10T14:46:35.045Z,90.20
2023-03-10T14:49:02.071Z,90.30
2023-03-10T14:51:35.558Z,90.40
2023-03-10T14:54:03.148Z,90.40
2023-03-10T14:56:30.076Z,90.20
2023-03-10T14:58:58.289Z,90.10
2023-03-10T15:01:25.049Z,90.20
2023-03-10T15:03:52.666Z,90.50
2023-03-10T15:06:19.695Z,91.40
2023-03-10T15:08:46.535Z,92.10
2023-03-10T15:11:14.691Z,93.60
2023-03-10T15:13:42.761Z,94.60
2023-03-10T15:16:10.402Z,95.50
2023-03-10T15:18:37.108Z,95.50
2023-03-10T15:21:03.713Z,96.70
2023-03-10T15:23:30.851Z,96.80
2023-03-10T15:25:58.341Z,97.40
2023-03-10T15:28:25.075Z,97.40
2023-03-10T15:30:51.767Z,97.60
2023-03-10T15:33:18.426Z,98.00
2023-03-10T15:35:45.204Z,98.10
2023-03-10T15:38:15.191Z,98.40
2023-03-10T15:40:42.642Z,98.50
2023-03-10T15:43:09.726Z,99.10
2023-03-10T15:45:38.369Z,99.90
2023-03-10T15:48:05.085Z,99.90
2023-03-10T15:50:31.756Z,99.90
2023-03-10T15:52:58.753Z,99.90
2023-03-10T15:55:25.945Z,99.90
2023-03-10T15:57:52.693Z,99.90
2023-03-10T16:00:20.169Z,99.90
2023-03-10T16:02:47.364Z,99.90
2023-03-10T16:05:14.524Z,99.90
2023-03-10T16:07:41.193Z,99.90
2023-03-10T16:10:12.797Z,99.90
2023-03-10T16:12:39.496Z,99.90
2023-03-10T16:15:07.382Z,99.90
2023-03-10T16:17:33.974Z,99.90
2023-03-10T16:20:02.208Z,99.90
2023-03-10T16:22:28.873Z,99.90
2023-03-10T16:24:55.677Z,99.90
2023-03-10T16:27:22.277Z,99.90
2023-03-10T16:29:48.934Z,99.90
2023-03-10T16:32:17.592Z,99.90
2023-03-10T16:34:44.304Z,99.90
2023-03-10T16:37:10.983Z,99.90
2023-03-10T16:39:37.815Z,99.90
2023-03-10T16:42:04.537Z,99.90
2023-03-10T16:44:31.157Z,99.90
2023-03-10T16:46:57.840Z,99.90
2023-03-10T16:49:24.441Z,99.90
2023-03-10T16:51:51.093Z,99.90
2023-03-10T16:54:19.048Z,99.90
2023-03-10T16:56:47.573Z,99.90
2023-03-10T16:59:18.997Z,99.90
2023-03-10T17:01:45.846Z,99.90
2023-03-10T17:04:12.595Z,99.90
2023-03-10T17:06:39.591Z,99.90
2023-03-10T17:09:07.262Z,99.90
2023-03-10T17:11:35.358Z,99.90
2023-03-10T17:14:03.360Z,99.90
2023-03-10T17:16:30.949Z,99.90
2023-03-10T17:18:58.717Z,99.90
2023-03-10T17:21:29.849Z,99.90
2023-03-10T17:23:56.543Z,99.90
2023-03-10T17:26:23.429Z,99.90
2023-03-10T17:28:51.088Z,99.90
2023-03-10T17:31:20.716Z,99.90
2023-03-10T17:33:47.448Z,99.90
2023-03-10T17:36:15.030Z,99.90
2023-03-10T17:38:42.112Z,99.90
2023-03-10T17:41:10.185Z,99.90
2023-03-10T17:43:37.076Z,99.90
2023-03-10T17:46:05.381Z,99.90
2023-03-10T17:48:32.559Z,99.90
2023-03-10T17:50:59.492Z,99.90
2023-03-10T17:53:26.744Z,99.90
2023-03-10T17:55:53.458Z,99.90
2023-03-10T17:58:21.037Z,99.90
2023-03-10T18:00:51.295Z,99.90
2023-03-10T18:03:20.125Z,99.90
2023-03-10T18:05:47.275Z,99.90
2023-03-10T18:08:14.406Z,99.90
2023-03-10T18:10:41.180Z,99.90
2023-03-10T18:13:09.168Z,99.90
2023-03-10T18:15:36.285Z,99.90
2023-03-10T18:18:02.965Z,99.90
2023-03-10T18:20:29.685Z,99.90
2023-03-10T18:22:56.286Z,99.90
2023-03-10T18:25:22.953Z,99.90
2023-03-10T18:27:49.608Z,99.90
2023-03-10T18:30:16.289Z,99.90
2023-03-10T18:32:43.277Z,99.90
2023-03-10T18:35:10.933Z,99.90
2023-03-10T18:37:37.690Z,99.90
2023-03-10T18:40:05.959Z,99.90
2023-03-10T18:42:33.141Z,99.90
2023-03-10T18:44:59.814Z,99.90
2023-03-10T18:47:26.425Z,99.90
2023-03-10T18:49:53.050Z,99.90
2023-03-10T18:52:19.669Z,99.90
2023-03-10T18:54:47.048Z,99.90
2023-03-10T18:57:14.427Z,99.90
2023-03-10T18:59:41.111Z,99.90
2023-03-10T19:02:12.247Z,99.90
2023-03-10T19:04:40.300Z,99.90
2023-03-10T19:07:07.367Z,99.90
2023-03-10T19:09:34.011Z,99.90
2023-03-10T19:12:00.627Z,99.90
2023-03-10T19:14:27.247Z,99.90
2023-03-10T19:16:53.987Z,99.90
2023-03-10T19:19:20.576Z,99.90
2023-03-10T19:21:47.282Z,99.90
2023-03-10T19:24:13.935Z,99.90
2023-03-10T19:26:40.570Z,99.90
2023-03-10T19:29:07.238Z,99.90
2023-03-10T19:31:34.029Z,99.90
2023-03-10T19:34:00.857Z,99.90
2023-03-10T19:36:29.430Z,99.90
2023-03-10T19:38:56.074Z,99.90
2023-03-10T19:41:23.453Z,99.90
2023-03-10T19:43:51.168Z,99.90
2023-03-10T19:46:18.699Z,99.90
2023-03-10T19:48:45.579Z,99.90
2023-03-10T19:51:19.813Z,99.90
2023-03-10T19:53:46.487Z,99.90
2023-03-10T19:56:15.829Z,99.90
2023-03-10T19:58:42.451Z,99.90
2023-03-10T20:01:15.923Z,99.90
2023-03-10T20:03:43.019Z,99.90
2023-03-10T20:06:09.706Z,99.90
2023-03-10T20:08:37.969Z,99.90
2023-03-10T20:11:05.280Z,99.90
2023-03-10T20:13:32.706Z,99.90
2023-03-10T20:15:59.394Z,99.90
2023-03-10T20:18:25.998Z,99.90
2023-03-10T20:20:52.773Z,99.90
2023-03-10T20:23:19.486Z,99.90
2023-03-10T20:25:46.366Z,99.90
2023-03-10T20:28:13.829Z,99.90
2023-03-10T20:30:41.171Z,99.90
2023-03-10T20:33:08.082Z,99.90
2023-03-10T20:35:34.845Z,99.90
2023-03-10T20:38:02.163Z,99.90
2023-03-10T20:40:28.816Z,99.90
2023-03-10T20:42:56.333Z,99.90
2023-03-10T20:45:23.362Z,99.90
2023-03-10T20:47:50.214Z,99.90
2023-03-10T20:50:17.430Z,99.90
2023-03-10T20:52:44.255Z,99.90
2023-03-10T20:55:19.750Z,99.90
2023-03-10T20:57:47.733Z,99.90
2023-03-10T21:00:16.506Z,99.90
2023-03-10T21:02:44.178Z,99.90
2023-03-10T21:05:11.194Z,99.90
2023-03-10T21:07:38.176Z,99.90
2023-03-10T21:10:05.674Z,99.90
2023-03-10T21:12:32.268Z,99.90
2023-03-10T21:14:58.946Z,99.90
2023-03-10T21:17:27.300Z,99.90
2023-03-10T21:19:54.702Z,99.90
2023-03-10T21:22:21.522Z,99.90
2023-03-10T21:24:49.135Z,99.90
2023-03-10T21:27:16.074Z,99.90
2023-03-10T21:29:43.032Z,99.90
2023-03-10T21:32:09.703Z,99.90
2023-03-10T21:34:36.640Z,99.90
2023-03-10T21:37:03.284Z,99.90
2023-03-10T21:39:30.010Z,99.90
2023-03-10T21:41:56.735Z,99.90
2023-03-10T21:44:23.444Z,99.90
2023-03-10T21:46:50.588Z,99.90
2023-03-10T21:49:17.248Z,99.90
2023-03-10T21:51:43.890Z,99.90
2023-03-10T21:54:10.683Z,99.90
2023-03-10T21:56:37.378Z,99.90
2023-03-10T21:59:04.004Z,99.90
2023-03-10T22:01:30.707Z,99.90
2023-03-10T22:03:58.223Z,99.90
2023-03-10T22:06:24.902Z,99.90
2023-03-10T22:08:51.507Z,99.90
2023-03-10T22:11:18.169Z,99.90
2023-03-10T22:13:44.816Z,99.90
2023-03-10T22:16:14.613Z,99.90
2023-03-10T22:18:41.234Z,99.90
2023-03-10T22:21:07.954Z,99.90
2023-03-10T22:23:34.603Z,99.90
2023-03-10T22:26:01.356Z,99.90
2023-03-10T22:28:27.968Z,99.90
2023-03-10T22:30:54.615Z,99.90
2023-03-10T22:33:21.236Z,99.90
2023-03-10T22:35:51.997Z,99.90
2023-03-10T22:38:20.128Z,99.90
2023-03-10T22:40:46.878Z,99.90
2023-03-10T22:43:13.753Z,99.90
2023-03-10T22:45:41.757Z,99.90
2023-03-10T22:48:08.438Z,99.90
2023-03-10T22:50:36.887Z,99.90
2023-03-10T22:53:04.690Z,99.90
2023-03-10T22:55:35.462Z,99.90
2023-03-10T22:58:06.232Z,99.90
2023-03-10T23:00:33.362Z,99.90
2023-03-10T23:03:00.167Z,99.90
2023-03-10T23:05:27.239Z,99.90
2023-03-10T23:07:54.243Z,99.90
2023-03-10T23:10:28.633Z,99.90
2023-03-10T23:12:55.443Z,99.90
2023-03-10T23:15:25.837Z,99.90
2023-03-10T23:17:53.793Z,99.90
2023-03-10T23:20:22.019Z,99.90
2023-03-10T23:22:48.621Z,99.90
2023-03-10T23:25:23.013Z,99.90
2023-03-10T23:27:49.664Z,99.90
2023-03-10T23:30:16.933Z,99.90
2023-03-10T23:32:44.207Z,99.90
2023-03-10T23:35:12.825Z,99.90
2023-03-10T23:37:39.536Z,99.90
2023-03-10T23:40:10.603Z,99.90
2023-03-10T23:42:37.984Z,99.90
2023-03-10T23:45:05.459Z,99.90
2023-03-10T23:47:33.200Z,99.90
2023-03-10T23:49:59.904Z,99.90
2023-03-10T23:52:26.712Z,99.90
2023-03-10T23:54:53.713Z,99.90
2023-03-10T23:57:20.433Z,99.90
2023-03-10T23:59:47.095Z,99.90
